CDT,Max TemperatureF,Mean TemperatureF,Min TemperatureF,Max Dew PointF,MeanDew PointF,Min DewpointF,Max Humidity, Mean Humidity, Min Humidity, Max Sea Level PressureIn, Mean Sea Level PressureIn, Min Sea Level PressureIn, Max VisibilityMiles, Mean VisibilityMiles, Min VisibilityMiles, Max Wind SpeedMPH, Mean Wind SpeedMPH, Max Gust SpeedMPH,PrecipitationIn, CloudCover, Events, WindDirDegrees
2012-9-1,90,84,78,79,76,72,88,78,65,30.07,30.02,29.98,10,9,2,13,9,26,0.04,3,Rain-Thunderstorm,160
2012-9-2,91,86,81,78,75,74,85,73,55,30.06,30.01,29.95,10,10,10,15,8,21,0.00,1,,166
2012-9-3,91,86,81,77,76,74,82,73,61,30.01,29.96,29.90,10,10,10,17,10,25,0.00,1,,165
2012-9-4,91,85,79,76,75,74,88,74,59,29.98,29.92,29.87,10,10,10,16,9,23,0.00,1,,163
2012-9-5,91,85,80,77,75,73,87,74,57,29.92,29.88,29.84,10,10,10,15,8,21,0.00,1,,164
2012-9-6,91,84,78,77,76,74,93,75,59,29.95,29.90,29.87,10,10,9,15,8,21,0.00,1,,168
2012-9-7,91,82,75,79,76,73,94,78,59,29.93,29.88,29.81,10,10,7,13,6,22,0.00,2,,169
2012-9-8,97,86,77,78,74,65,96,75,44,30.01,29.91,29.84,10,9,2,15,7,29,0.16,3,Rain-Thunderstorm,18
2012-9-9,88,80,73,68,64,58,82,62,37,30.10,30.04,30.00,10,10,10,13,10,,0.00,0,,61
2012-9-10,90,78,68,68,65,60,93,64,38,30.10,30.04,29.99,10,10,10,16,7,,0.00,0,,93
2012-9-11,90,80,71,77,71,64,87,70,52,30.05,30.00,29.97,10,10,10,20,9,24,0.00,2,,88
2012-9-12,91,83,75,78,76,72,96,78,52,30.03,29.98,29.93,10,10,8,17,6,24,0.00,1,,150
2012-9-13,89,84,80,77,75,70,90,77,59,30.09,30.02,29.96,10,10,7,18,9,32,0.00,2,Rain-Thunderstorm,131
2012-9-14,84,76,69,76,72,69,100,90,74,30.14,30.09,30.05,10,7,1,22,8,28,2.03,5,Rain-Thunderstorm,22
2012-9-15,82,76,69,72,70,66,93,82,67,30.15,30.10,30.04,10,10,6,15,11,23,0.00,5,Thunderstorm,18
2012-9-16,81,74,69,75,71,69,100,93,78,30.05,29.98,29.92,10,7,1,14,6,,0.50,6,Rain-Thunderstorm,20
2012-9-17,82,74,68,70,69,67,100,88,64,29.93,29.87,29.79,10,10,9,8,5,,0.00,3,,31
2012-9-18,90,78,66,73,69,63,100,76,42,30.02,29.96,29.87,10,9,2,10,5,,0.00,0,,352
2012-9-19,86,78,70,72,69,66,90,74,57,30.10,30.04,30.01,10,10,10,14,8,,0.00,0,,68
2012-9-20,86,80,73,69,64,59,76,60,43,30.07,30.03,29.98,10,10,10,13,8,,0.00,0,,114
2012-9-21,86,75,66,71,63,54,90,63,35,30.02,29.98,29.93,10,10,10,13,7,,0.00,0,,89
2012-9-22,90,80,72,74,72,70,97,74,55,30.09,30.03,29.98,10,10,7,12,8,,0.00,0,,95
2012-9-23,90,81,73,75,73,72,97,77,57,30.15,30.11,30.07,10,10,9,14,6,,0.00,0,,112
2012-9-24,89,80,73,73,72,70,90,70,57,30.15,30.09,30.02,10,10,10,16,8,23,0.00,1,,141
2012-9-25,89,84,80,73,71,70,74,67,59,30.06,30.00,29.94,10,10,10,16,11,24,0.00,1,,146
2012-9-26,89,85,81,73,71,69,74,66,55,30.02,29.97,29.94,10,10,10,16,11,23,0.00,0,,141
2012-9-27,89,84,78,76,74,73,88,75,61,30.04,29.99,29.94,10,10,10,14,10,,0.03,1,,126
2012-9-28,89,82,77,76,75,73,90,79,65,30.00,29.95,29.89,10,10,10,15,8,21,0.00,1,,138
2012-9-29,82,77,72,79,75,72,100,95,82,29.89,29.81,29.69,10,6,1,15,8,24,0.68,7,Rain-Thunderstorm,163
2012-9-30,82,75,69,70,66,62,97,78,58,29.85,29.78,29.72,10,10,9,22,14,32,0.00,6,,316